createdAt,value
2022-08-20T00:00:49.177Z,5.38
2022-08-20T00:03:32.839Z,4.88
2022-08-20T00:06:07.561Z,5.32
2022-08-20T00:08:35.690Z,4.38
2022-08-20T00:11:07.810Z,5.07
2022-08-20T00:13:46.287Z,4.47
2022-08-20T00:16:15.727Z,5.15
2022-08-20T00:18:44.578Z,4.38
2022-08-20T00:21:19.153Z,4.95
2022-08-20T00:23:49.583Z,5.05
2022-08-20T00:26:24.267Z,3.95
2022-08-20T00:28:52.895Z,4.78
2022-08-20T00:31:23.914Z,4.50
2022-08-20T00:33:52.359Z,3.45
2022-08-20T00:36:32.287Z,4.35
2022-08-20T00:39:01.441Z,4.35
2022-08-20T00:41:30.279Z,4.60
2022-08-20T00:44:19.553Z,4.00
2022-08-20T00:46:48.090Z,4.05
2022-08-20T00:49:23.592Z,4.55
2022-08-20T00:51:56.007Z,3.80
2022-08-20T00:54:55.264Z,4.10
2022-08-20T00:57:59.794Z,4.40
2022-08-20T01:00:55.801Z,4.15
2022-08-20T01:05:53.130Z,3.80
2022-08-20T01:08:23.630Z,3.22
2022-08-20T01:10:52.359Z,4.13
2022-08-20T01:13:26.114Z,6.10
2022-08-20T01:15:57.317Z,4.47
2022-08-20T01:18:29.715Z,3.10
2022-08-20T01:21:00.672Z,4.18
2022-08-20T01:24:03.060Z,2.72
2022-08-20T01:26:41.181Z,3.30
2022-08-20T01:29:17.101Z,3.33
2022-08-20T01:31:45.888Z,3.03
2022-08-20T01:34:16.473Z,3.30
2022-08-20T01:36:50.198Z,3.20
2022-08-20T01:42:13.819Z,3.47
2022-08-20T01:44:47.818Z,3.30
2022-08-20T01:47:28.318Z,3.30
2022-08-20T01:49:59.863Z,3.53
2022-08-20T01:52:52.523Z,2.80
2022-08-20T01:55:23.229Z,2.88
2022-08-20T01:57:51.481Z,3.00
2022-08-20T02:00:22.047Z,2.55
2022-08-20T02:02:50.952Z,3.05
2022-08-20T02:05:19.948Z,3.10
2022-08-20T02:07:49.294Z,3.17
2022-08-20T02:10:19.116Z,3.45
2022-08-20T02:12:47.181Z,6.30
2022-08-20T02:15:15.220Z,4.03
2022-08-20T02:17:47.161Z,4.22
2022-08-20T02:20:18.658Z,7.80
2022-08-20T02:22:50.397Z,10.77
2022-08-20T02:25:23.536Z,6.07
2022-08-20T02:27:52.670Z,8.32
2022-08-20T02:30:28.187Z,9.60
2022-08-20T02:33:04.885Z,6.90
2022-08-20T02:35:35.771Z,5.72
2022-08-20T02:38:06.262Z,4.32
2022-08-20T02:40:34.349Z,4.57
2022-08-20T02:43:03.561Z,4.22
2022-08-20T02:45:34.088Z,4.60
2022-08-20T02:48:05.183Z,4.30
2022-08-20T02:50:33.419Z,3.95
2022-08-20T02:53:04.947Z,4.18
2022-08-20T02:55:32.974Z,3.80
2022-08-20T02:58:01.346Z,4.40
2022-08-20T03:00:32.107Z,4.63
2022-08-20T03:03:09.192Z,4.95
2022-08-20T03:05:40.473Z,5.20
2022-08-20T03:08:10.306Z,5.40
2022-08-20T03:10:39.422Z,5.95
2022-08-20T03:13:10.179Z,5.38
2022-08-20T03:15:41.614Z,5.50
2022-08-20T03:18:09.793Z,5.40
2022-08-20T03:20:40.862Z,5.32
2022-08-20T03:23:08.934Z,5.03
2022-08-20T03:25:40.487Z,4.72
2022-08-20T03:28:11.108Z,4.30
2022-08-20T03:30:40.425Z,5.20
2022-08-20T03:33:08.527Z,4.70
2022-08-20T03:35:37.581Z,4.68
2022-08-20T03:38:11.036Z,5.90
2022-08-20T03:40:39.771Z,3.90
2022-08-20T03:43:09.419Z,4.97
2022-08-20T03:45:39.092Z,4.60
2022-08-20T03:48:11.981Z,4.40
2022-08-20T03:50:40.572Z,3.97
2022-08-20T03:53:09.730Z,4.03
2022-08-20T03:55:42.435Z,4.72
2022-08-20T03:58:14.823Z,5.03
2022-08-20T04:00:48.857Z,4.38
2022-08-20T04:05:48.412Z,4.72
2022-08-20T04:08:24.915Z,4.55
2022-08-20T04:10:57.566Z,4.65
2022-08-20T04:13:29.769Z,5.07
2022-08-20T04:16:03.950Z,4.47
2022-08-20T04:18:32.167Z,4.68
2022-08-20T04:21:00.237Z,4.65
2022-08-20T04:23:28.407Z,5.45
2022-08-20T04:25:56.713Z,5.20
2022-08-20T04:28:25.805Z,5.28
2022-08-20T04:30:58.653Z,4.25
2022-08-20T04:33:33.914Z,4.75
2022-08-20T04:36:04.969Z,4.82
2022-08-20T04:38:48.502Z,5.18
2022-08-20T04:41:23.711Z,4.40
2022-08-20T04:46:24.629Z,4.72
2022-08-20T04:48:55.647Z,4.75
2022-08-20T04:51:24.442Z,5.28
2022-08-20T04:53:54.571Z,4.95
2022-08-20T04:56:24.858Z,5.78
2022-08-20T04:58:56.811Z,4.80
2022-08-20T05:01:30.294Z,4.90
2022-08-20T05:04:02.251Z,6.00
2022-08-20T05:06:35.746Z,5.45
2022-08-20T05:09:06.080Z,4.90
2022-08-20T05:11:36.942Z,4.72
2022-08-20T05:14:09.507Z,4.22
2022-08-20T05:16:39.667Z,4.30
2022-08-20T05:19:13.201Z,4.32
2022-08-20T05:21:41.627Z,4.32
2022-08-20T05:24:10.041Z,4.72
2022-08-20T05:26:38.285Z,3.88
2022-08-20T05:29:06.925Z,4.15
2022-08-20T05:31:35.884Z,4.38
2022-08-20T05:34:05.966Z,4.40
2022-08-20T05:36:37.207Z,4.90
2022-08-20T05:39:05.356Z,4.45
2022-08-20T05:41:33.415Z,4.63
2022-08-20T05:44:01.940Z,4.68
2022-08-20T05:46:32.020Z,4.30
2022-08-20T05:49:01.081Z,4.50
2022-08-20T05:51:30.195Z,4.55
2022-08-20T05:53:59.459Z,4.13
2022-08-20T05:56:29.515Z,5.15
2022-08-20T05:58:57.812Z,4.28
2022-08-20T06:01:26.011Z,5.07
2022-08-20T06:03:54.091Z,4.85
2022-08-20T06:06:45.762Z,4.78
2022-08-20T06:09:13.242Z,5.10
2022-08-20T06:11:43.611Z,4.82
2022-08-20T06:14:14.285Z,5.50
2022-08-20T06:16:57.306Z,6.05
2022-08-20T06:19:26.544Z,5.28
2022-08-20T06:21:57.688Z,5.55
2022-08-20T06:24:25.786Z,5.47
2022-08-20T06:26:58.909Z,6.60
2022-08-20T06:29:27.563Z,5.20
2022-08-20T06:31:59.031Z,5.88
2022-08-20T06:34:27.117Z,5.57
2022-08-20T06:37:00.731Z,5.70
2022-08-20T06:39:29.339Z,6.03
2022-08-20T06:41:57.428Z,5.07
2022-08-20T06:44:25.755Z,5.43
2022-08-20T06:47:00.808Z,5.95
2022-08-20T06:49:35.176Z,5.68
2022-08-20T06:52:05.571Z,6.18
2022-08-20T06:54:33.800Z,6.28
2022-08-20T06:57:03.164Z,6.45
2022-08-20T06:59:31.240Z,6.00
2022-08-20T07:01:59.353Z,5.43
2022-08-20T07:04:28.143Z,5.80
2022-08-20T07:06:56.758Z,5.72
2022-08-20T07:09:26.136Z,5.95
2022-08-20T07:11:54.259Z,5.88
2022-08-20T07:14:24.582Z,5.53
2022-08-20T07:16:52.635Z,6.05
2022-08-20T07:19:20.726Z,6.38
2022-08-20T07:21:48.703Z,6.07
2022-08-20T07:24:16.737Z,5.80
2022-08-20T07:26:44.888Z,5.68
2022-08-20T07:29:15.832Z,6.63
2022-08-20T07:31:43.823Z,6.35
2022-08-20T07:34:19.572Z,5.57
2022-08-20T07:36:47.882Z,7.07
2022-08-20T07:39:16.124Z,6.00
2022-08-20T07:41:51.580Z,7.57
2022-08-20T07:44:29.180Z,5.82
2022-08-20T07:47:03.974Z,6.13
2022-08-20T07:49:32.006Z,7.38
2022-08-20T07:52:05.411Z,6.05
2022-08-20T07:54:37.396Z,5.95
2022-08-20T07:57:05.792Z,6.35
2022-08-20T07:59:33.826Z,6.18
2022-08-20T08:02:01.859Z,6.35
2022-08-20T08:04:29.873Z,7.00
2022-08-20T08:06:58.012Z,6.07
2022-08-20T08:09:28.860Z,5.93
2022-08-20T08:11:58.355Z,6.45
2022-08-20T08:14:28.159Z,5.82
2022-08-20T08:16:58.373Z,6.95
2022-08-20T08:19:29.075Z,6.88
2022-08-20T08:21:57.433Z,6.80
2022-08-20T08:24:28.464Z,6.78
2022-08-20T08:26:56.818Z,7.70
2022-08-20T08:29:24.956Z,6.88
2022-08-20T08:31:55.295Z,7.88
2022-08-20T08:34:28.461Z,7.53
2022-08-20T08:36:59.138Z,6.97
2022-08-20T08:39:33.367Z,7.47
2022-08-20T08:42:04.873Z,7.20
2022-08-20T08:44:37.734Z,6.95
2022-08-20T08:47:12.583Z,7.70
2022-08-20T08:49:42.972Z,6.70
2022-08-20T08:52:27.623Z,7.38
2022-08-20T08:55:00.374Z,6.88
2022-08-20T08:57:28.700Z,7.43
2022-08-20T09:00:18.309Z,7.75
2022-08-20T09:03:11.089Z,7.03
2022-08-20T09:05:50.015Z,7.07
2022-08-20T09:08:21.266Z,7.43
2022-08-20T09:10:52.078Z,8.18
2022-08-20T09:13:20.141Z,7.10
2022-08-20T09:15:48.174Z,7.30
2022-08-20T09:18:16.247Z,6.70
2022-08-20T09:20:44.218Z,7.88
2022-08-20T09:23:12.395Z,7.05
2022-08-20T09:25:40.399Z,7.05
2022-08-20T09:28:08.416Z,6.53
2022-08-20T09:30:38.843Z,6.40
2022-08-20T09:33:09.984Z,6.97
2022-08-20T09:35:38.096Z,7.68
2022-08-20T09:38:09.178Z,7.13
2022-08-20T09:40:39.888Z,8.63
2022-08-20T09:43:09.014Z,8.60
2022-08-20T09:45:37.727Z,7.07
2022-08-20T09:48:06.078Z,6.88
2022-08-20T09:50:46.891Z,8.02
2022-08-20T09:53:17.775Z,7.40
2022-08-20T09:55:48.137Z,7.65
2022-08-20T09:58:26.767Z,8.65
2022-08-20T10:00:55.017Z,8.40
2022-08-20T10:03:23.086Z,7.47
2022-08-20T10:05:51.195Z,7.43
2022-08-20T10:08:21.859Z,8.13
2022-08-20T10:10:49.923Z,8.75
2022-08-20T10:13:17.962Z,8.98
2022-08-20T10:15:45.991Z,8.32
2022-08-20T10:18:14.246Z,7.57
2022-08-20T10:20:42.604Z,7.70
2022-08-20T10:23:10.575Z,8.52
2022-08-20T10:25:38.786Z,7.63
2022-08-20T10:28:06.886Z,8.10
2022-08-20T10:30:35.558Z,8.77
2022-08-20T10:35:48.937Z,9.20
2022-08-20T10:38:18.626Z,8.80
2022-08-20T10:40:52.153Z,8.63
2022-08-20T10:43:20.704Z,8.95
2022-08-20T10:45:48.792Z,9.50
2022-08-20T10:48:21.577Z,9.60
2022-08-20T10:50:53.453Z,8.85
2022-08-20T10:53:21.899Z,10.00
2022-08-20T10:55:50.053Z,8.55
2022-08-20T10:58:23.845Z,9.30
2022-08-20T11:03:20.515Z,8.98
2022-08-20T11:05:48.734Z,8.57
2022-08-20T11:08:34.032Z,8.40
2022-08-20T11:11:04.914Z,8.75
2022-08-20T11:13:36.379Z,7.07
2022-08-20T11:16:05.610Z,8.13
2022-08-20T11:18:33.632Z,7.75
2022-08-20T11:21:01.736Z,7.80
2022-08-20T11:23:30.534Z,9.35
2022-08-20T11:25:58.852Z,8.40
2022-08-20T11:28:31.125Z,8.63
2022-08-20T11:31:01.030Z,8.93
2022-08-20T11:33:31.465Z,8.68
2022-08-20T11:36:04.558Z,8.90
2022-08-20T11:38:32.714Z,9.13
2022-08-20T11:41:03.061Z,9.15
2022-08-20T11:43:31.093Z,8.10
2022-08-20T11:45:59.174Z,7.85
2022-08-20T11:48:29.487Z,8.52
2022-08-20T11:50:57.488Z,9.88
2022-08-20T11:53:27.932Z,10.13
2022-08-20T11:55:59.228Z,11.23
2022-08-20T11:58:27.246Z,9.65
2022-08-20T12:00:55.345Z,9.55
2022-08-20T12:03:26.227Z,9.65
2022-08-20T12:05:54.282Z,9.75
2022-08-20T12:08:27.889Z,9.25
2022-08-20T12:10:57.964Z,8.02
2022-08-20T12:13:30.872Z,9.02
2022-08-20T12:16:15.220Z,9.77
2022-08-20T12:18:43.327Z,8.55
2022-08-20T12:21:11.394Z,8.82
2022-08-20T12:23:42.953Z,9.18
2022-08-20T12:26:11.128Z,9.50
2022-08-20T12:28:39.165Z,8.85
2022-08-20T12:31:07.253Z,8.10
2022-08-20T12:33:35.452Z,8.55
2022-08-20T12:36:03.686Z,8.80
2022-08-20T12:38:31.726Z,9.10
2022-08-20T12:40:59.858Z,9.40
2022-08-20T12:43:27.890Z,10.27
2022-08-20T12:45:55.923Z,10.15
2022-08-20T12:48:23.960Z,10.95
2022-08-20T12:50:52.026Z,10.80
2022-08-20T12:53:20.331Z,9.77
2022-08-20T12:55:50.693Z,9.63
2022-08-20T12:58:21.397Z,10.05
2022-08-20T13:00:50.489Z,10.25
2022-08-20T13:03:20.186Z,10.57
2022-08-20T13:05:48.598Z,9.98
2022-08-20T13:08:16.710Z,11.57
2022-08-20T13:10:47.204Z,10.75
2022-08-20T13:13:17.571Z,9.88
2022-08-20T13:15:51.540Z,10.65
2022-08-20T13:18:20.499Z,10.27
2022-08-20T13:20:49.008Z,10.80
2022-08-20T13:23:22.088Z,10.30
2022-08-20T13:25:50.169Z,10.13
2022-08-20T13:28:18.199Z,10.10
2022-08-20T13:30:49.075Z,9.70
2022-08-20T13:33:17.262Z,9.75
2022-08-20T13:35:45.309Z,9.05
2022-08-20T13:38:14.349Z,9.68
2022-08-20T13:40:42.410Z,10.35
2022-08-20T13:43:11.763Z,11.02
2022-08-20T13:45:41.926Z,10.98
2022-08-20T13:48:14.964Z,10.93
2022-08-20T13:50:43.901Z,11.77
2022-08-20T13:53:16.014Z,11.75
2022-08-20T13:55:44.943Z,11.90
2022-08-20T13:58:13.006Z,12.05
2022-08-20T14:00:41.085Z,12.70
2022-08-20T14:03:09.138Z,12.10
2022-08-20T14:05:40.501Z,11.40
2022-08-20T14:08:21.684Z,11.77
2022-08-20T14:10:51.513Z,11.10
2022-08-20T14:13:22.239Z,11.45
2022-08-20T14:15:50.677Z,11.52
2022-08-20T14:18:19.072Z,11.52
2022-08-20T14:20:47.441Z,11.80
2022-08-20T14:23:18.698Z,10.13
2022-08-20T14:25:48.334Z,11.73
2022-08-20T14:28:23.817Z,10.57
2022-08-20T14:30:54.750Z,12.48
2022-08-20T14:33:26.704Z,10.82
2022-08-20T14:35:54.706Z,11.77
2022-08-20T14:38:25.293Z,11.75
2022-08-20T14:40:53.401Z,11.05
2022-08-20T14:43:23.737Z,10.68
2022-08-20T14:45:51.740Z,10.20
2022-08-20T14:48:19.806Z,10.18
2022-08-20T14:50:47.919Z,9.98
2022-08-20T14:53:18.779Z,9.93
2022-08-20T14:55:49.523Z,9.18
2022-08-20T14:58:20.460Z,9.35
2022-08-20T15:00:48.515Z,9.73
2022-08-20T15:03:16.652Z,9.40
2022-08-20T15:05:44.682Z,10.48
2022-08-20T15:08:13.104Z,10.82
2022-08-20T15:10:46.134Z,9.98
2022-08-20T15:13:14.217Z,10.95
2022-08-20T15:15:42.275Z,10.20
2022-08-20T15:18:12.614Z,10.68
2022-08-20T15:20:43.181Z,10.18
2022-08-20T15:23:11.206Z,9.25
2022-08-20T15:25:39.263Z,9.73
2022-08-20T15:28:09.647Z,9.82
2022-08-20T15:30:40.156Z,9.82
2022-08-20T15:33:09.220Z,10.32
2022-08-20T15:35:37.383Z,9.88
2022-08-20T15:38:05.416Z,9.77
2022-08-20T15:40:34.156Z,9.35
2022-08-20T15:43:03.777Z,10.10
2022-08-20T15:45:32.645Z,9.35
2022-08-20T15:48:21.555Z,8.40
2022-08-20T15:50:49.560Z,8.73
2022-08-20T15:53:41.514Z,8.57
2022-08-20T15:56:27.142Z,8.68
2022-08-20T15:59:04.980Z,9.07
2022-08-20T16:01:51.574Z,8.55
2022-08-20T16:04:49.993Z,9.02
2022-08-20T16:07:51.908Z,8.10
2022-08-20T16:10:31.794Z,8.77
2022-08-20T16:13:01.794Z,7.50
2022-08-20T16:15:36.872Z,8.93
2022-08-20T16:18:16.857Z,10.02
2022-08-20T16:20:52.725Z,10.20
2022-08-20T16:23:27.510Z,7.82
2022-08-20T16:26:18.292Z,8.60
2022-08-20T16:28:53.511Z,9.27
2022-08-20T16:31:25.284Z,8.82
2022-08-20T16:34:33.061Z,9.80
2022-08-20T16:37:04.331Z,8.45
2022-08-20T16:40:01.218Z,7.82
2022-08-20T16:42:38.689Z,9.13
2022-08-20T16:45:12.814Z,9.27
2022-08-20T16:47:41.185Z,8.30
2022-08-20T16:50:20.082Z,7.07
2022-08-20T16:52:48.782Z,7.47
2022-08-20T16:55:20.533Z,8.40
2022-08-20T16:57:51.677Z,7.63
2022-08-20T17:00:26.845Z,7.00
2022-08-20T17:03:00.235Z,7.53
2022-08-20T17:05:50.417Z,7.03
2022-08-20T17:08:30.008Z,7.45
2022-08-20T17:11:08.745Z,7.65
2022-08-20T17:13:38.988Z,7.55
2022-08-20T17:16:15.904Z,7.60
2022-08-20T17:18:48.664Z,6.28
2022-08-20T17:21:18.710Z,7.15
2022-08-20T17:23:57.987Z,7.18
2022-08-20T17:26:35.608Z,8.02
2022-08-20T17:29:23.033Z,6.70
2022-08-20T17:31:59.145Z,7.50
2022-08-20T17:34:30.679Z,8.82
2022-08-20T17:37:10.687Z,6.70
2022-08-20T17:39:48.349Z,7.40
2022-08-20T17:42:23.610Z,7.30
2022-08-20T17:45:07.210Z,7.28
2022-08-20T17:47:37.613Z,7.00
2022-08-20T17:50:14.967Z,7.30
2022-08-20T17:52:54.479Z,7.18
2022-08-20T17:55:23.367Z,7.50
2022-08-20T17:57:57.123Z,6.75
2022-08-20T18:00:28.455Z,7.00
2022-08-20T18:03:02.377Z,6.80
2022-08-20T18:08:20.791Z,7.43
2022-08-20T18:11:09.898Z,6.55
2022-08-20T18:13:48.153Z,6.85
2022-08-20T18:16:42.955Z,6.38
2022-08-20T18:22:05.864Z,5.72
2022-08-20T18:25:05.372Z,6.15
2022-08-20T18:27:43.029Z,5.93
2022-08-20T18:30:22.298Z,6.57
2022-08-20T18:33:02.012Z,6.57
2022-08-20T18:35:44.892Z,6.75
2022-08-20T18:38:34.585Z,5.95
2022-08-20T18:41:13.429Z,6.05
2022-08-20T18:43:44.339Z,6.32
2022-08-20T18:46:23.242Z,5.68
2022-08-20T18:48:59.987Z,6.03
2022-08-20T18:51:50.225Z,7.03
2022-08-20T18:54:36.764Z,6.22
2022-08-20T18:57:18.944Z,6.43
2022-08-20T18:59:52.054Z,6.72
2022-08-20T19:02:33.792Z,6.45
2022-08-20T19:05:06.555Z,6.32
2022-08-20T19:07:48.499Z,5.15
2022-08-20T19:10:55.710Z,6.18
2022-08-20T19:13:35.292Z,5.90
2022-08-20T19:16:07.731Z,5.22
2022-08-20T19:18:54.276Z,5.47
2022-08-20T19:21:40.389Z,5.60
2022-08-20T19:24:09.151Z,5.57
2022-08-20T19:26:43.823Z,5.50
2022-08-20T19:29:18.164Z,6.13
2022-08-20T19:31:49.163Z,5.05
2022-08-20T19:34:22.837Z,5.55
2022-08-20T19:39:25.730Z,5.47
2022-08-20T19:42:16.419Z,5.40
2022-08-20T19:44:52.042Z,5.10
2022-08-20T19:47:33.882Z,5.40
2022-08-20T19:50:16.891Z,5.60
2022-08-20T19:53:15.227Z,5.20
2022-08-20T19:55:46.148Z,5.20
2022-08-20T19:58:26.238Z,5.97
2022-08-20T20:00:57.245Z,4.68
2022-08-20T20:03:29.629Z,5.72
2022-08-20T20:06:00.361Z,5.18
2022-08-20T20:08:40.390Z,5.97
2022-08-20T20:11:08.637Z,5.68
2022-08-20T20:13:39.796Z,6.10
2022-08-20T20:16:08.195Z,5.88
2022-08-20T20:18:39.798Z,5.47
2022-08-20T20:21:43.730Z,4.65
2022-08-20T20:24:21.213Z,5.25
2022-08-20T20:26:52.850Z,5.10
2022-08-20T20:29:27.122Z,4.65
2022-08-20T20:31:59.286Z,4.20
2022-08-20T20:34:55.297Z,5.43
2022-08-20T20:37:49.656Z,5.15
2022-08-20T20:40:29.476Z,4.88
2022-08-20T20:43:04.410Z,4.90
2022-08-20T20:45:43.930Z,4.88
2022-08-20T20:48:27.072Z,4.93
2022-08-20T20:51:00.901Z,4.55
2022-08-20T20:53:53.419Z,5.07
2022-08-20T20:56:34.508Z,5.30
2022-08-20T20:59:07.380Z,5.47
2022-08-20T21:01:48.200Z,4.32
2022-08-20T21:04:21.555Z,5.60
2022-08-20T21:06:50.402Z,4.97
2022-08-20T21:09:19.090Z,4.28
2022-08-20T21:11:50.069Z,5.55
2022-08-20T21:14:18.922Z,4.57
2022-08-20T21:16:47.073Z,5.15
2022-08-20T21:19:16.240Z,4.85
2022-08-20T21:21:46.806Z,5.50
2022-08-20T21:24:14.847Z,4.95
2022-08-20T21:26:43.070Z,4.65
2022-08-20T21:29:24.406Z,5.13
2022-08-20T21:31:55.329Z,4.50
2022-08-20T21:34:23.848Z,5.07
2022-08-20T21:36:52.347Z,5.30
2022-08-20T21:39:22.293Z,4.72
2022-08-20T21:41:50.686Z,4.00
2022-08-20T21:44:27.589Z,4.00
2022-08-20T21:46:58.243Z,3.78
2022-08-20T21:49:28.086Z,4.22
2022-08-20T21:51:57.171Z,3.65
2022-08-20T21:54:25.724Z,3.83
2022-08-20T21:57:03.118Z,4.15
2022-08-20T21:59:31.577Z,4.22
2022-08-20T22:01:59.653Z,4.85
2022-08-20T22:04:34.780Z,4.38
2022-08-20T22:07:06.772Z,3.58
2022-08-20T22:09:35.190Z,4.00
2022-08-20T22:12:07.680Z,4.85
2022-08-20T22:14:35.798Z,4.80
2022-08-20T22:17:03.888Z,4.40
2022-08-20T22:19:34.526Z,4.25
2022-08-20T22:22:04.906Z,4.53
2022-08-20T22:24:36.056Z,4.55
2022-08-20T22:27:07.064Z,4.20
2022-08-20T22:29:35.276Z,4.28
2022-08-20T22:32:06.043Z,3.70
2022-08-20T22:34:35.806Z,4.45
2022-08-20T22:37:04.384Z,4.53
2022-08-20T22:39:32.501Z,4.07
2022-08-20T22:42:05.406Z,5.45
2022-08-20T22:44:33.654Z,4.57
2022-08-20T22:47:05.803Z,5.10
2022-08-20T22:49:36.304Z,7.22
2022-08-20T22:52:04.570Z,4.70
2022-08-20T22:54:32.638Z,5.25
2022-08-20T22:57:00.769Z,4.38
2022-08-20T22:59:31.434Z,4.85
2022-08-20T23:02:04.275Z,4.88
2022-08-20T23:04:36.868Z,4.47
2022-08-20T23:07:05.711Z,4.60
2022-08-20T23:09:36.653Z,5.45
2022-08-20T23:12:08.457Z,4.43
2022-08-20T23:14:39.312Z,4.95
2022-08-20T23:17:14.747Z,4.50
2022-08-20T23:19:46.525Z,5.25
2022-08-20T23:22:14.852Z,5.00
2022-08-20T23:24:43.028Z,4.90
2022-08-20T23:27:14.442Z,5.05
2022-08-20T23:29:44.938Z,5.03
2022-08-20T23:32:13.083Z,5.28
2022-08-20T23:34:43.563Z,4.57
2022-08-20T23:37:11.955Z,4.63
2022-08-20T23:39:40.045Z,4.55
2022-08-20T23:42:08.144Z,4.70
2022-08-20T23:44:36.185Z,4.97
2022-08-20T23:47:04.257Z,5.03
2022-08-20T23:49:33.116Z,4.93
2022-08-20T23:52:01.694Z,5.13
2022-08-20T23:54:31.305Z,4.88
2022-08-20T23:56:59.597Z,5.00
2022-08-20T23:59:27.730Z,5.05
